Time;durP1;ratioP1;P1;durP2;ratioP2;P2;SDS_P1;SDS_P2;PMS_P1;PMS_P2;Temp;Humidity;BMP_temperature;BMP_pressure;BME280_temperature;BME280_humidity;BME280_pressure;Samples;Min_cycle;Max_cycle;Signal;HPM_P1;HPM_P2
2023/09/22 00:01:38;;;;;;;10.07;3.83;;;14.10;99.90;;;;;;5025092;28;20036;-58
2023/09/22 00:04:04;;;;;;;10.98;4.18;;;14.10;99.90;;;;;;5024188;28;20026;-58
2023/09/22 00:06:29;;;;;;;4.70;3.25;;;14.20;99.90;;;;;;5021255;28;20052;-57
2023/09/22 00:08:56;;;;;;;13.32;4.82;;;14.20;99.90;;;;;;5038987;28;20060;-58
2023/09/22 00:11:22;;;;;;;9.07;4.90;;;14.10;99.90;;;;;;5017391;28;20026;-58
2023/09/22 00:13:47;;;;;;;9.90;5.28;;;14.10;99.90;;;;;;5024597;28;20029;-58
2023/09/22 00:16:13;;;;;;;16.50;5.03;;;14.10;99.90;;;;;;5019642;28;20143;-58
2023/09/22 00:18:38;;;;;;;7.57;4.88;;;14.00;99.90;;;;;;5026063;28;20037;-58
2023/09/22 00:21:05;;;;;;;4.85;2.55;;;14.00;99.90;;;;;;5022505;28;20026;-58
2023/09/22 00:23:30;;;;;;;10.75;3.58;;;14.00;99.90;;;;;;5025591;28;20166;-54
2023/09/22 00:25:56;;;;;;;6.53;3.53;;;14.00;99.90;;;;;;5021287;28;20025;-55
2023/09/22 00:28:22;;;;;;;11.80;3.72;;;14.00;99.90;;;;;;5025607;28;20037;-58
2023/09/22 00:30:47;;;;;;;7.40;3.55;;;14.00;99.90;;;;;;5020678;28;20054;-60
2023/09/22 00:33:13;;;;;;;4.18;3.05;;;13.90;99.90;;;;;;5017855;28;20037;-57
2023/09/22 00:35:39;;;;;;;9.43;2.50;;;13.80;99.90;;;;;;5029990;28;20072;-58
2023/09/22 00:38:06;;;;;;;7.93;2.95;;;13.80;99.90;;;;;;5014885;28;20452;-57
2023/09/22 00:40:32;;;;;;;6.75;3.38;;;13.70;99.90;;;;;;5024872;28;20060;-56
2023/09/22 00:43:11;;;;;;;3.40;2.42;;;13.70;99.90;;;;;;5024247;28;20060;-56
2023/09/22 00:45:47;;;;;;;6.00;2.60;;;13.60;99.90;;;;;;5019283;28;20400;-59
2023/09/22 00:48:35;;;;;;;5.70;2.38;;;13.40;99.90;;;;;;5020321;28;20022;-57
2023/09/22 00:51:01;;;;;;;9.57;3.17;;;13.50;99.90;;;;;;5026854;28;20137;-57
2023/09/22 00:53:30;;;;;;;6.53;2.95;;;13.40;99.90;;;;;;5025676;28;20017;-54
2023/09/22 00:55:57;;;;;;;6.18;3.15;;;13.30;99.90;;;;;;5023113;28;20085;-59
2023/09/22 00:58:23;;;;;;;9.68;3.22;;;13.30;99.90;;;;;;5019890;28;20025;-58
2023/09/22 01:00:49;;;;;;;12.07;5.75;;;13.20;99.90;;;;;;5024003;28;20056;-56
2023/09/22 01:03:16;;;;;;;6.90;2.90;;;13.20;99.90;;;;;;5024905;28;20097;-56
2023/09/22 01:05:43;;;;;;;6.82;2.72;;;13.10;99.90;;;;;;5026328;28;20428;-54
2023/09/22 01:08:08;;;;;;;5.85;2.83;;;13.10;99.90;;;;;;5018704;28;20490;-56
2023/09/22 01:10:36;;;;;;;8.60;3.00;;;13.00;99.90;;;;;;5026675;28;20042;-60
2023/09/22 01:13:01;;;;;;;15.57;9.05;;;12.90;99.90;;;;;;5019555;28;20033;-58
2023/09/22 01:15:27;;;;;;;16.10;4.57;;;12.90;99.90;;;;;;5024783;28;20099;-56
2023/09/22 01:17:53;;;;;;;11.82;5.00;;;12.90;99.90;;;;;;5026652;28;20044;-58
2023/09/22 01:20:18;;;;;;;10.55;5.45;;;12.90;99.90;;;;;;5020361;28;20212;-55
2023/09/22 01:22:44;;;;;;;11.27;4.40;;;12.90;99.90;;;;;;5020706;28;20083;-55
2023/09/22 01:25:09;;;;;;;15.50;5.60;;;12.70;99.90;;;;;;5026495;28;20044;-53
2023/09/22 01:27:35;;;;;;;12.20;4.55;;;12.70;99.90;;;;;;5020568;28;20478;-58
2023/09/22 01:30:00;;;;;;;22.20;5.43;;;12.70;99.90;;;;;;5027584;28;20029;-55
2023/09/22 01:32:27;;;;;;;11.88;4.65;;;;;;;;;;5015912;28;20053;-54
2023/09/22 01:34:53;;;;;;;20.30;5.22;;;12.60;99.90;;;;;;5025571;28;20025;-60
2023/09/22 01:37:28;;;;;;;10.85;4.32;;;12.60;99.90;;;;;;5020789;28;20029;-59
2023/09/22 01:39:57;;;;;;;8.82;5.03;;;12.60;99.90;;;;;;5015803;28;20025;-58
2023/09/22 01:42:23;;;;;;;13.00;5.00;;;12.60;99.90;;;;;;5022109;28;20108;-56
2023/09/22 01:44:49;;;;;;;11.98;4.60;;;12.50;99.90;;;;;;5021149;28;20526;-58
2023/09/22 01:47:14;;;;;;;8.73;4.45;;;12.50;99.90;;;;;;5018733;28;20026;-54
2023/09/22 01:49:40;;;;;;;8.30;4.95;;;12.40;99.90;;;;;;5024589;28;20033;-59
2023/09/22 01:52:05;;;;;;;10.38;5.63;;;12.50;99.90;;;;;;5019240;28;20435;-58
2023/09/22 01:54:31;;;;;;;10.73;4.28;;;12.40;99.90;;;;;;5015306;28;20063;-57
2023/09/22 01:56:56;;;;;;;7.50;3.70;;;12.40;99.90;;;;;;5030737;28;20036;-59
2023/09/22 01:59:22;;;;;;;3.83;3.13;;;12.40;99.90;;;;;;5019088;28;20037;-55
2023/09/22 02:01:48;;;;;;;10.38;3.15;;;12.40;99.90;;;;;;5019490;28;20030;-58
2023/09/22 02:04:13;;;;;;;11.90;3.13;;;12.40;99.90;;;;;;5019479;28;20037;-58
2023/09/22 02:06:39;;;;;;;6.28;3.10;;;12.30;99.90;;;;;;5015209;28;20080;-55
2023/09/22 02:09:05;;;;;;;7.43;2.83;;;12.30;99.90;;;;;;5012453;28;20034;-54
2023/09/22 02:11:31;;;;;;;5.90;3.13;;;12.30;99.90;;;;;;5025737;28;20025;-53
2023/09/22 02:13:57;;;;;;;8.60;3.22;;;12.30;99.90;;;;;;5019075;28;20032;-56
2023/09/22 02:16:22;;;;;;;6.00;3.10;;;12.30;99.90;;;;;;5024555;28;20112;-57
2023/09/22 02:18:48;;;;;;;4.50;2.70;;;12.30;99.90;;;;;;5021763;28;20038;-59
2023/09/22 02:21:14;;;;;;;8.68;4.47;;;12.20;99.90;;;;;;5025815;28;20038;-57
2023/09/22 02:23:39;;;;;;;12.25;5.03;;;12.30;99.90;;;;;;5022214;28;20052;-58
2023/09/22 02:26:06;;;;;;;11.73;3.80;;;12.30;99.90;;;;;;5020932;28;20219;-57
2023/09/22 02:28:32;;;;;;;12.98;3.85;;;12.20;99.90;;;;;;5027647;28;20092;-57
2023/09/22 02:30:57;;;;;;;14.57;3.63;;;12.20;99.90;;;;;;5023192;28;20026;-56
2023/09/22 02:33:23;;;;;;;12.93;3.45;;;12.10;99.90;;;;;;5018340;28;20091;-56
2023/09/22 02:35:48;;;;;;;14.32;3.38;;;12.10;99.90;;;;;;5017609;28;20049;-57
2023/09/22 02:38:14;;;;;;;10.32;3.67;;;12.10;99.90;;;;;;5015614;28;20025;-58
2023/09/22 02:40:40;;;;;;;7.07;3.20;;;11.90;99.90;;;;;;5015095;28;20485;-57
2023/09/22 02:43:06;;;;;;;7.47;4.13;;;11.80;99.90;;;;;;5019020;28;20037;-57
2023/09/22 02:45:32;;;;;;;6.13;3.97;;;11.90;99.90;;;;;;5020744;28;20026;-56
2023/09/22 02:47:57;;;;;;;7.85;4.13;;;11.80;99.90;;;;;;5022115;28;20030;-56
2023/09/22 02:50:23;;;;;;;7.35;4.05;;;11.90;99.90;;;;;;5023074;28;20061;-54
2023/09/22 02:52:49;;;;;;;7.13;3.40;;;11.90;99.90;;;;;;5019393;28;20041;-56
2023/09/22 02:55:14;;;;;;;11.10;3.90;;;11.80;99.90;;;;;;5027735;28;20506;-56
2023/09/22 02:57:42;;;;;;;7.22;3.45;;;11.80;99.90;;;;;;5027627;28;20031;-57
2023/09/22 03:00:12;;;;;;;13.75;3.92;;;11.80;99.90;;;;;;5022523;28;20033;-59
2023/09/22 03:02:38;;;;;;;10.25;4.18;;;11.80;99.90;;;;;;5023243;28;20033;-57
2023/09/22 03:05:07;;;;;;;6.50;3.65;;;11.70;99.90;;;;;;5021723;28;20022;-56
2023/09/22 03:07:33;;;;;;;6.40;3.38;;;11.70;99.90;;;;;;5024085;28;20025;-54
2023/09/22 03:09:58;;;;;;;9.68;3.97;;;11.70;99.90;;;;;;5023181;28;20046;-57
2023/09/22 03:12:24;;;;;;;5.95;3.60;;;11.70;99.90;;;;;;5030883;28;20100;-60
2023/09/22 03:14:50;;;;;;;5.38;3.92;;;11.80;99.90;;;;;;5017495;28;20029;-57
2023/09/22 03:17:15;;;;;;;6.25;3.28;;;11.80;99.90;;;;;;5029672;28;20038;-57
2023/09/22 03:19:41;;;;;;;7.47;4.00;;;11.80;99.90;;;;;;5023720;28;20411;-56
2023/09/22 03:22:06;;;;;;;6.05;3.25;;;11.80;99.90;;;;;;5023140;28;20041;-55
2023/09/22 03:24:32;;;;;;;7.47;3.67;;;11.80;99.90;;;;;;5026664;28;20025;-55
2023/09/22 03:26:58;;;;;;;7.85;3.60;;;11.90;99.90;;;;;;5026646;28;20029;-55
2023/09/22 03:29:24;;;;;;;7.80;4.00;;;11.90;99.90;;;;;;5026418;28;20075;-56
2023/09/22 03:31:49;;;;;;;4.35;3.17;;;12.00;99.90;;;;;;5022966;28;20068;-56
2023/09/22 03:34:15;;;;;;;5.43;3.17;;;12.00;99.90;;;;;;5025466;28;20026;-56
2023/09/22 03:36:41;;;;;;;7.78;3.47;;;12.10;99.90;;;;;;5019856;28;20436;-56
2023/09/22 03:39:08;;;;;;;11.25;3.38;;;12.20;99.90;;;;;;5015377;28;20060;-58
2023/09/22 03:41:35;;;;;;;9.45;3.28;;;12.20;99.90;;;;;;5022123;28;20032;-58
2023/09/22 03:44:01;;;;;;;11.77;3.50;;;12.30;99.90;;;;;;5020609;28;20068;-59
2023/09/22 03:46:27;;;;;;;5.72;3.63;;;12.40;99.90;;;;;;5022968;28;20041;-57
2023/09/22 03:48:52;;;;;;;7.60;2.65;;;12.40;99.90;;;;;;5023814;28;20021;-56
2023/09/22 03:51:18;;;;;;;6.70;3.50;;;12.40;99.90;;;;;;5019776;28;20029;-57
2023/09/22 03:53:44;;;;;;;10.38;3.92;;;12.40;99.90;;;;;;5019540;28;20526;-58
2023/09/22 03:56:10;;;;;;;7.80;3.40;;;12.40;99.90;;;;;;5021641;28;20025;-59
2023/09/22 03:58:35;;;;;;;12.05;3.40;;;12.40;99.90;;;;;;5030232;28;20414;-53
2023/09/22 04:01:05;;;;;;;7.55;3.45;;;12.30;99.90;;;;;;5014074;28;20485;-57
2023/09/22 04:03:31;;;;;;;8.77;3.42;;;12.30;99.90;;;;;;5019956;28;20036;-58
2023/09/22 04:05:56;;;;;;;4.18;2.97;;;12.30;99.90;;;;;;5021514;28;20018;-55
2023/09/22 04:08:24;;;;;;;9.10;2.75;;;12.30;99.90;;;;;;5022827;28;20038;-57
2023/09/22 04:10:50;;;;;;;3.25;2.63;;;12.40;99.90;;;;;;5017608;28;20033;-56
2023/09/22 04:13:15;;;;;;;8.20;2.75;;;12.40;99.90;;;;;;5018941;28;20492;-58
2023/09/22 04:15:41;;;;;;;4.45;3.05;;;12.40;99.90;;;;;;5016288;28;20036;-51
2023/09/22 04:18:07;;;;;;;7.43;2.63;;;12.50;99.90;;;;;;5021860;28;20060;-51
2023/09/22 04:20:37;;;;;;;5.95;2.67;;;12.50;99.90;;;;;;5021452;28;20411;-53
2023/09/22 04:23:04;;;;;;;4.70;3.22;;;12.60;99.90;;;;;;5025419;28;20123;-54
2023/09/22 04:25:33;;;;;;;5.85;2.90;;;12.60;99.90;;;;;;5020974;28;20103;-54
2023/09/22 04:28:09;;;;;;;6.82;3.38;;;12.70;99.90;;;;;;5030093;28;20387;-60
2023/09/22 04:30:36;;;;;;;8.38;3.17;;;12.70;99.90;;;;;;5014361;28;20033;-55
2023/09/22 04:33:02;;;;;;;8.40;3.25;;;12.70;99.90;;;;;;5021732;28;20032;-57
2023/09/22 04:35:32;;;;;;;4.00;2.80;;;12.80;99.90;;;;;;5020665;28;20022;-56
2023/09/22 04:38:06;;;;;;;10.75;3.28;;;12.80;99.90;;;;;;5019932;28;20105;-56
2023/09/22 04:40:36;;;;;;;;;;;12.90;99.90;;;;;;5022622;28;20041;-57
2023/09/22 04:43:03;;;;;;;11.85;3.35;;;12.90;99.90;;;;;;5020414;28;19913;-57
2023/09/22 04:45:29;;;;;;;6.78;3.50;;;12.90;99.90;;;;;;5015930;28;20467;-56
2023/09/22 04:47:55;;;;;;;6.00;3.40;;;13.00;99.90;;;;;;5012827;28;20033;-55
2023/09/22 04:50:21;;;;;;;9.40;3.05;;;13.00;99.90;;;;;;5022173;28;20025;-55
2023/09/22 04:52:49;;;;;;;6.75;2.90;;;13.00;99.90;;;;;;5019821;28;20026;-54
2023/09/22 04:55:16;;;;;;;6.18;2.95;;;13.00;99.90;;;;;;5012154;28;20033;-57
2023/09/22 04:57:42;;;;;;;9.82;3.53;;;13.00;99.90;;;;;;5024337;28;20112;-52
2023/09/22 05:00:15;;;;;;;6.18;3.28;;;13.00;99.90;;;;;;5020657;28;20040;-55
2023/09/22 05:02:41;;;;;;;7.00;3.08;;;13.00;99.90;;;;;;5018220;28;20116;-56
2023/09/22 05:05:08;;;;;;;8.07;3.10;;;12.90;99.90;;;;;;5016193;28;20029;-56
2023/09/22 05:07:33;;;;;;;5.68;3.58;;;12.90;99.90;;;;;;5011752;28;20026;-55
2023/09/22 05:09:59;;;;;;;13.70;3.60;;;12.90;99.90;;;;;;5018889;28;20029;-51
2023/09/22 05:12:25;;;;;;;8.95;3.38;;;12.90;99.90;;;;;;5020696;28;20029;-54
2023/09/22 05:14:52;;;;;;;7.97;3.30;;;12.80;99.90;;;;;;5026148;28;20075;-56
2023/09/22 05:17:18;;;;;;;10.82;3.15;;;12.80;99.90;;;;;;5015847;28;20554;-56
2023/09/22 05:19:43;;;;;;;9.82;2.97;;;12.80;99.90;;;;;;5022453;28;20034;-55
2023/09/22 05:22:10;;;;;;;12.82;3.10;;;12.70;99.90;;;;;;5022317;28;20029;-56
2023/09/22 05:24:36;;;;;;;5.50;3.35;;;12.80;99.90;;;;;;5023492;28;20084;-58
2023/09/22 05:27:04;;;;;;;12.68;3.60;;;12.80;99.90;;;;;;5019704;28;20018;-57
2023/09/22 05:29:29;;;;;;;4.82;3.40;;;12.60;99.90;;;;;;5023537;28;20030;-58
2023/09/22 05:31:55;;;;;;;7.22;3.15;;;12.60;99.90;;;;;;5016211;28;20037;-56
2023/09/22 05:34:20;;;;;;;14.60;3.88;;;12.60;99.90;;;;;;5023592;28;20060;-53
2023/09/22 05:36:46;;;;;;;10.45;4.32;;;12.50;99.90;;;;;;5027453;28;20021;-57
2023/09/22 05:39:12;;;;;;;8.75;3.25;;;12.50;99.90;;;;;;5017038;28;20112;-56
2023/09/22 05:41:38;;;;;;;6.45;3.65;;;12.50;99.90;;;;;;5024459;28;20021;-56
2023/09/22 05:44:04;;;;;;;5.47;3.08;;;12.50;99.90;;;;;;5030334;28;20040;-54
2023/09/22 05:46:31;;;;;;;8.93;3.63;;;12.40;99.90;;;;;;5014420;28;20025;-55
2023/09/22 05:48:57;;;;;;;4.57;2.90;;;12.50;99.90;;;;;;5020906;28;20036;-55
2023/09/22 05:51:23;;;;;;;8.30;3.42;;;12.50;99.90;;;;;;5017970;28;20093;-52
2023/09/22 05:53:51;;;;;;;13.57;3.70;;;12.60;99.90;;;;;;5019936;28;20608;-54
2023/09/22 05:56:16;;;;;;;7.00;2.60;;;12.60;99.90;;;;;;5011846;28;20537;-57
2023/09/22 05:58:42;;;;;;;7.55;2.00;;;12.70;99.90;;;;;;5021479;28;20121;-58
2023/09/22 06:01:12;;;;;;;6.20;2.15;;;12.70;99.90;;;;;;5019192;28;20079;-59
2023/09/22 06:03:40;;;;;;;4.32;1.95;;;12.70;99.90;;;;;;5026199;28;20025;-58
2023/09/22 06:06:08;;;;;;;4.50;1.80;;;12.80;99.90;;;;;;5014081;28;20377;-60
2023/09/22 06:08:36;;;;;;;7.93;2.13;;;12.80;99.90;;;;;;5014104;28;20017;-57
2023/09/22 06:11:01;;;;;;;6.18;2.05;;;12.80;99.90;;;;;;5012910;28;20030;-57
2023/09/22 06:13:27;;;;;;;5.28;2.33;;;12.70;99.90;;;;;;5019194;28;20443;-59
2023/09/22 06:15:53;;;;;;;4.18;1.63;;;12.70;99.90;;;;;;5015798;28;20523;-58
2023/09/22 06:18:22;;;;;;;6.38;1.90;;;12.80;99.90;;;;;;5023197;28;20037;-58
2023/09/22 06:20:48;;;;;;;6.78;2.47;;;12.80;99.90;;;;;;5014844;28;20037;-58
2023/09/22 06:23:13;;;;;;;6.72;2.50;;;12.90;99.90;;;;;;5016082;28;20040;-56
2023/09/22 06:25:39;;;;;;;7.00;1.65;;;12.90;99.90;;;;;;5020389;28;20037;-58
2023/09/22 06:28:05;;;;;;;4.50;2.17;;;12.90;99.90;;;;;;5021874;28;20037;-57
2023/09/22 06:30:34;;;;;;;10.05;2.60;;;12.90;99.90;;;;;;5020487;28;20147;-58
2023/09/22 06:33:00;;;;;;;8.88;2.05;;;12.90;99.90;;;;;;5021159;28;20547;-53
2023/09/22 06:35:26;;;;;;;11.25;2.22;;;12.90;99.90;;;;;;5022241;28;20041;-58
2023/09/22 06:37:51;;;;;;;12.60;2.67;;;12.90;99.90;;;;;;5022593;28;20044;-57
2023/09/22 06:40:17;;;;;;;8.23;2.72;;;13.00;99.90;;;;;;5027937;28;20021;-54
2023/09/22 06:42:45;;;;;;;7.93;2.83;;;13.00;99.90;;;;;;5022944;28;20051;-54
2023/09/22 06:45:16;;;;;;;5.93;2.75;;;13.10;99.90;;;;;;5027321;28;20022;-57
2023/09/22 06:47:42;;;;;;;3.33;2.22;;;13.10;99.90;;;;;;5020620;28;20062;-56
2023/09/22 06:50:08;;;;;;;4.10;2.53;;;13.20;99.90;;;;;;5015502;28;20739;-51
2023/09/22 06:52:36;;;;;;;5.82;2.35;;;13.30;99.90;;;;;;5027370;28;20034;-56
2023/09/22 06:55:08;;;;;;;6.72;2.92;;;13.50;99.90;;;;;;5027529;28;20033;-56
2023/09/22 06:57:36;;;;;;;5.47;2.65;;;13.60;99.90;;;;;;5023029;28;20396;-56
2023/09/22 07:00:08;;;;;;;9.95;2.72;;;13.60;99.90;;;;;;5031403;28;20057;-57
2023/09/22 07:02:34;;;;;;;5.47;2.22;;;13.70;99.90;;;;;;5023874;28;20087;-57
2023/09/22 07:05:00;;;;;;;4.60;2.13;;;13.80;99.90;;;;;;5022051;28;20029;-50
2023/09/22 07:07:26;;;;;;;5.50;1.75;;;13.80;99.90;;;;;;5021632;28;20223;-55
2023/09/22 07:09:51;;;;;;;6.28;1.92;;;13.80;99.90;;;;;;5021213;28;20391;-54
2023/09/22 07:12:17;;;;;;;7.47;1.40;;;13.80;99.90;;;;;;5022552;28;20109;-58
2023/09/22 07:14:42;;;;;;;3.63;1.25;;;13.80;99.90;;;;;;5026427;28;20037;-57
2023/09/22 07:17:08;;;;;;;4.50;1.48;;;13.80;99.90;;;;;;5026771;28;20052;-53
2023/09/22 07:19:38;;;;;;;3.83;1.52;;;13.80;99.90;;;;;;5022638;28;20103;-52
2023/09/22 07:22:03;;;;;;;10.10;4.32;;;13.80;99.90;;;;;;5021381;28;20029;-58
2023/09/22 07:24:29;;;;;;;4.53;1.42;;;13.80;99.90;;;;;;5025549;28;20025;-56
2023/09/22 07:26:54;;;;;;;9.10;1.90;;;13.80;99.90;;;;;;5020565;28;20030;-53
2023/09/22 07:29:20;;;;;;;3.33;1.35;;;13.90;99.90;;;;;;5027520;28;20026;-56
2023/09/22 07:31:46;;;;;;;6.63;1.67;;;13.90;99.90;;;;;;5015189;28;20043;-56
2023/09/22 07:34:12;;;;;;;2.35;0.98;;;13.80;99.90;;;;;;5023106;28;20037;-52
2023/09/22 07:36:38;;;;;;;6.30;1.42;;;13.90;99.90;;;;;;5018052;28;20038;-53
2023/09/22 07:39:04;;;;;;;1.60;1.20;;;13.90;99.90;;;;;;5018540;28;20083;-57
2023/09/22 07:41:30;;;;;;;5.45;1.23;;;13.90;99.90;;;;;;5024898;28;20057;-56
2023/09/22 07:43:55;;;;;;;5.00;1.40;;;13.90;99.90;;;;;;5025891;28;20096;-57
2023/09/22 07:46:22;;;;;;;3.65;1.20;;;13.90;99.90;;;;;;5021775;28;20018;-54
2023/09/22 07:48:50;;;;;;;2.90;1.40;;;13.90;99.90;;;;;;5022428;28;20010;-55
2023/09/22 07:51:15;;;;;;;3.72;1.30;;;13.90;99.90;;;;;;5018637;28;20101;-55
2023/09/22 07:53:43;;;;;;;1.40;1.27;;;14.00;99.90;;;;;;5023224;28;20465;-58
2023/09/22 07:56:12;;;;;;;4.88;1.38;;;14.00;99.90;;;;;;5023300;28;20026;-52
2023/09/22 07:58:40;;;;;;;5.80;1.40;;;14.00;99.90;;;;;;5024828;28;20147;-57
2023/09/22 08:01:07;;;;;;;2.28;1.15;;;14.00;99.90;;;;;;5021214;28;20039;-55
2023/09/22 08:03:35;;;;;;;8.02;1.30;;;14.00;99.90;;;;;;5021152;28;20116;-55
2023/09/22 08:06:05;;;;;;;3.63;1.20;;;14.10;99.90;;;;;;5021870;28;20021;-53
2023/09/22 08:08:30;;;;;;;2.90;1.65;;;14.10;99.90;;;;;;5025673;28;20025;-53
2023/09/22 08:10:56;;;;;;;3.63;1.38;;;14.20;99.90;;;;;;5028330;28;20083;-56
2023/09/22 08:13:22;;;;;;;4.63;1.67;;;14.30;99.90;;;;;;5019897;28;20018;-54
2023/09/22 08:15:48;;;;;;;4.00;1.50;;;14.30;99.90;;;;;;5019276;28;20030;-52
2023/09/22 08:18:13;;;;;;;6.60;1.40;;;14.40;99.90;;;;;;5010819;28;20129;-55
2023/09/22 08:20:39;;;;;;;4.90;1.67;;;14.40;99.90;;;;;;5023941;28;20044;-56
2023/09/22 08:23:05;;;;;;;5.70;1.60;;;14.40;99.90;;;;;;5019232;28;20025;-58
2023/09/22 08:25:31;;;;;;;4.32;1.70;;;14.50;99.90;;;;;;5018240;28;20017;-55
2023/09/22 08:27:56;;;;;;;4.97;1.23;;;14.50;99.90;;;;;;5020898;28;20087;-58
2023/09/22 08:30:23;;;;;;;2.67;1.20;;;14.70;99.90;;;;;;5020793;28;20144;-57
2023/09/22 08:32:49;;;;;;;4.85;1.30;;;14.70;99.90;;;;;;5020138;28;20034;-57
2023/09/22 08:35:18;;;;;;;4.15;1.27;;;14.90;99.90;;;;;;5023126;28;20032;-57
2023/09/22 08:37:44;;;;;;;2.78;1.00;;;15.00;99.90;;;;;;5017060;28;20403;-56
2023/09/22 08:40:14;;;;;;;5.13;1.40;;;15.10;99.90;;;;;;5024241;28;20419;-58
2023/09/22 08:42:40;;;;;;;6.53;1.63;;;15.10;99.90;;;;;;5016466;28;20056;-57
2023/09/22 08:45:06;;;;;;;6.45;1.20;;;15.30;99.90;;;;;;5023815;28;20440;-52
2023/09/22 08:47:39;;;;;;;2.83;0.93;;;15.40;99.90;;;;;;5017762;28;20037;-56
2023/09/22 08:50:06;;;;;;;5.78;1.10;;;15.50;99.90;;;;;;5022435;28;20028;-53
2023/09/22 08:52:32;;;;;;;1.88;0.85;;;15.60;99.90;;;;;;5020740;28;20041;-58
2023/09/22 08:54:58;;;;;;;2.80;0.90;;;15.70;99.90;;;;;;5022272;28;20407;-57
2023/09/22 08:57:25;;;;;;;2.47;0.75;;;15.90;99.90;;;;;;5020204;28;20365;-57
2023/09/22 08:59:53;;;;;;;2.67;0.90;;;15.90;99.90;;;;;;5022636;28;20029;-56
2023/09/22 09:02:19;;;;;;;2.40;0.98;;;16.00;99.90;;;;;;5018197;28;20029;-59
2023/09/22 09:04:45;;;;;;;4.72;1.00;;;16.10;99.90;;;;;;5020359;28;20036;-58
2023/09/22 09:07:16;;;;;;;2.28;0.93;;;16.10;99.90;;;;;;5017406;28;20029;-57
2023/09/22 09:09:44;;;;;;;6.40;1.00;;;16.00;99.90;;;;;;5019959;28;20110;-57
2023/09/22 09:12:11;;;;;;;1.60;0.90;;;16.00;99.90;;;;;;5017004;28;20045;-56
2023/09/22 09:14:42;;;;;;;2.13;0.90;;;16.10;99.90;;;;;;5016483;28;20041;-56
2023/09/22 09:17:19;;;;;;;2.05;0.80;;;16.20;99.90;;;;;;5022819;28;20047;-57
2023/09/22 09:19:55;;;;;;;3.67;1.13;;;16.30;99.90;;;;;;5016812;28;20026;-56
2023/09/22 09:22:21;;;;;;;4.60;1.10;;;16.50;99.90;;;;;;5020057;28;20120;-57
2023/09/22 09:24:46;;;;;;;1.58;1.00;;;16.50;99.90;;;;;;5016857;28;20483;-57
2023/09/22 09:27:17;;;;;;;3.13;0.90;;;16.50;99.90;;;;;;5022810;28;20087;-60
2023/09/22 09:29:46;;;;;;;3.83;0.85;;;16.40;99.90;;;;;;5021655;28;20033;-58
2023/09/22 09:32:30;;;;;;;7.38;0.98;;;16.30;99.90;;;;;;5024135;28;20519;-59
2023/09/22 09:34:56;;;;;;;2.38;1.00;;;16.30;99.90;;;;;;5018001;28;20045;-56
2023/09/22 09:37:23;;;;;;;2.38;1.10;;;16.30;99.90;;;;;;5022379;28;20026;-58
2023/09/22 09:39:53;;;;;;;2.65;1.00;;;16.30;99.90;;;;;;5020289;28;20033;-55
2023/09/22 09:42:22;;;;;;;1.77;0.93;;;16.30;99.90;;;;;;5017043;28;20045;-58
2023/09/22 09:44:53;;;;;;;6.05;1.30;;;16.30;99.90;;;;;;5025803;28;20045;-54
2023/09/22 09:47:32;;;;;;;4.22;1.30;;;16.30;99.90;;;;;;5020877;28;20018;-55
2023/09/22 09:49:58;;;;;;;3.80;0.90;;;16.30;99.90;;;;;;5022238;28;20052;-58
2023/09/22 09:52:37;;;;;;;4.03;1.10;;;16.30;99.90;;;;;;5019559;28;20504;-58
2023/09/22 09:55:12;;;;;;;7.13;0.90;;;16.30;99.90;;;;;;5028980;28;20391;-58
2023/09/22 09:57:45;;;;;;;3.58;0.88;;;16.40;99.90;;;;;;5021749;28;20034;-56
2023/09/22 10:00:14;;;;;;;1.52;0.63;;;16.60;99.90;;;;;;5032253;28;20109;-56
2023/09/22 10:02:43;;;;;;;1.55;0.80;;;17.00;99.90;;;;;;5016391;28;20026;-56
2023/09/22 10:05:13;;;;;;;1.65;0.70;;;17.30;99.90;;;;;;5027648;28;20112;-58
2023/09/22 10:07:40;;;;;;;2.20;0.60;;;17.20;99.90;;;;;;5023338;28;20028;-57
2023/09/22 10:10:06;;;;;;;2.53;0.82;;;17.10;99.90;;;;;;5030676;28;20017;-58
2023/09/22 10:12:32;;;;;;;2.00;1.02;;;17.10;99.90;;;;;;5019492;28;20030;-55
2023/09/22 10:15:01;;;;;;;1.48;0.68;;;17.10;99.90;;;;;;5034022;28;20032;-55
2023/09/22 10:17:28;;;;;;;3.72;0.80;;;17.50;99.90;;;;;;5018134;28;20025;-57
2023/09/22 10:19:54;;;;;;;5.55;1.42;;;17.70;99.90;;;;;;5020424;28;20419;-57
2023/09/22 10:22:20;;;;;;;2.53;1.20;;;17.70;99.90;;;;;;5015485;28;20037;-56
2023/09/22 10:24:46;;;;;;;4.15;1.20;;;17.80;99.90;;;;;;5027645;28;20075;-55
2023/09/22 10:27:15;;;;;;;5.80;1.30;;;17.80;99.90;;;;;;5019613;28;20081;-59
2023/09/22 10:29:42;;;;;;;7.65;1.73;;;17.70;99.90;;;;;;5028473;28;20463;-57
2023/09/22 10:32:21;;;;;;;4.35;1.23;;;17.70;99.90;;;;;;5024791;28;20112;-59
2023/09/22 10:35:09;;;;;;;4.65;1.20;;;17.70;99.90;;;;;;5025488;28;20062;-54
2023/09/22 10:37:35;;;;;;;3.95;0.80;;;17.70;99.90;;;;;;5019138;28;20971;-57
2023/09/22 10:40:15;;;;;;;2.55;1.27;;;17.70;99.90;;;;;;5025802;28;20056;-59
2023/09/22 10:42:46;;;;;;;1.92;0.90;;;17.80;99.90;;;;;;5015602;28;20373;-58
2023/09/22 10:45:13;;;;;;;8.48;1.13;;;17.80;99.90;;;;;;5015577;28;20026;-54
2023/09/22 10:47:41;;;;;;;1.83;0.90;;;17.90;99.90;;;;;;5034862;28;20427;-60
2023/09/22 10:50:21;;;;;;;3.40;0.90;;;18.30;99.90;;;;;;5013987;28;20022;-59
2023/09/22 10:52:52;;;;;;;2.33;0.60;;;19.00;99.90;;;;;;5030731;28;20036;-56
2023/09/22 10:55:28;;;;;;;0.77;0.63;;;19.00;99.90;;;;;;5017438;28;20209;-56
2023/09/22 10:57:55;;;;;;;3.45;0.88;;;19.40;99.90;;;;;;5028379;28;20029;-57
2023/09/22 11:00:22;;;;;;;1.77;0.60;;;19.40;99.90;;;;;;5017283;28;20029;-57
2023/09/22 11:02:48;;;;;;;3.13;0.75;;;19.60;99.90;;;;;;5027406;28;20491;-58
2023/09/22 11:05:16;;;;;;;1.75;0.63;;;19.70;99.90;;;;;;5022422;28;20022;-53
2023/09/22 11:07:44;;;;;;;1.95;0.90;;;19.60;99.90;;;;;;5030875;28;20076;-56
2023/09/22 11:10:22;;;;;;;3.65;0.88;;;19.70;99.90;;;;;;5030441;28;20104;-56
2023/09/22 11:12:52;;;;;;;3.40;0.90;;;19.60;99.90;;;;;;5020844;28;20038;-57
2023/09/22 11:15:19;;;;;;;3.63;1.00;;;19.80;99.90;;;;;;5021994;28;20032;-58
2023/09/22 11:17:48;;;;;;;2.50;0.80;;;19.80;99.90;;;;;;5026676;28;20118;-58
2023/09/22 11:20:18;;;;;;;6.63;0.95;;;19.80;99.90;;;;;;5029655;28;20056;-57
2023/09/22 11:22:44;;;;;;;2.70;1.00;;;19.70;99.90;;;;;;5022730;28;20117;-54
2023/09/22 11:25:09;;;;;;;1.67;1.02;;;19.70;99.90;;;;;;5032936;28;20063;-55
2023/09/22 11:27:51;;;;;;;10.98;1.23;;;19.50;99.90;;;;;;5024669;28;20025;-56
2023/09/22 11:30:21;;;;;;;3.83;0.95;;;19.50;99.90;;;;;;5035397;28;20032;-56
2023/09/22 11:32:47;;;;;;;4.68;1.08;;;19.90;99.90;;;;;;5019419;28;20091;-57
2023/09/22 11:35:41;;;;;;;1.65;0.70;;;19.80;99.90;;;;;;5026708;28;20021;-57
2023/09/22 11:38:26;;;;;;;2.22;0.60;;;20.20;99.90;;;;;;5014878;28;20455;-55
2023/09/22 11:41:04;;;;;;;3.10;1.30;;;20.20;99.90;;;;;;5026798;28;20025;-55
2023/09/22 11:43:31;;;;;;;2.15;0.82;;;20.30;99.90;;;;;;5028253;28;20025;-56
2023/09/22 11:46:17;;;;;;;3.28;0.95;;;20.30;99.90;;;;;;5032981;28;20021;-56
2023/09/22 11:48:59;;;;;;;1.25;0.73;;;20.40;99.90;;;;;;5024212;28;20030;-57
2023/09/22 11:51:50;;;;;;;5.38;0.90;;;20.80;99.90;;;;;;5026882;28;20021;-56
2023/09/22 11:54:20;;;;;;;1.20;0.70;;;20.70;99.90;;;;;;5038322;28;20067;-59
2023/09/22 11:56:47;;;;;;;2.10;0.90;;;20.20;99.90;;;;;;5024585;28;20030;-58
2023/09/22 11:59:13;;;;;;;2.83;1.05;;;19.90;99.90;;;;;;5036915;28;20028;-59
2023/09/22 12:01:39;;;;;;;2.28;0.80;;;20.00;99.90;;;;;;5021044;28;20036;-55
2023/09/22 12:04:06;;;;;;;1.27;0.75;;;19.70;99.90;;;;;;5031987;28;20068;-57
2023/09/22 12:06:32;;;;;;;1.58;0.80;;;19.90;99.90;;;;;;5017600;28;20021;-57
2023/09/22 12:08:58;;;;;;;6.05;0.82;;;20.30;99.90;;;;;;5035999;28;20123;-56
2023/09/22 12:11:25;;;;;;;2.22;0.98;;;20.60;99.90;;;;;;5016501;28;20358;-58
2023/09/22 12:13:50;;;;;;;5.97;0.90;;;20.80;99.90;;;;;;5036097;28;20105;-58
2023/09/22 12:16:16;;;;;;;1.27;0.70;;;20.00;99.90;;;;;;5023348;28;20029;-56
2023/09/22 12:18:42;;;;;;;2.58;1.00;;;19.50;99.90;;;;;;5022315;28;20030;-56
2023/09/22 12:21:08;;;;;;;4.05;0.70;;;19.50;99.90;;;;;;5021061;28;20033;-58
2023/09/22 12:23:33;;;;;;;4.95;0.55;;;19.60;99.90;;;;;;5029624;28;20034;-57
2023/09/22 12:25:59;;;;;;;4.63;0.98;;;19.50;99.90;;;;;;5017934;28;20048;-56
2023/09/22 12:28:25;;;;;;;2.20;0.73;;;19.50;99.90;;;;;;5021413;28;20045;-59
2023/09/22 12:30:52;;;;;;;2.25;1.00;;;19.10;99.90;;;;;;5027730;28;20057;-57
2023/09/22 12:33:18;;;;;;;5.20;0.60;;;18.80;99.90;;;;;;5029528;28;20037;-57
2023/09/22 12:35:44;;;;;;;2.63;0.80;;;19.10;99.90;;;;;;5028804;28;20088;-51
2023/09/22 12:38:09;;;;;;;2.28;0.65;;;19.70;99.90;;;;;;5024638;28;20037;-55
2023/09/22 12:40:36;;;;;;;1.08;0.50;;;20.30;99.90;;;;;;5022552;28;20060;-55
2023/09/22 12:43:02;;;;;;;3.05;0.80;;;20.60;99.90;;;;;;5023494;28;20025;-57
2023/09/22 12:45:30;;;;;;;4.20;1.10;;;21.00;99.90;;;;;;5026784;28;20091;-56
2023/09/22 12:47:56;;;;;;;3.55;0.75;;;21.00;99.90;;;;;;5028284;28;20044;-56